sensor_id;sensor_type;location;lat;lon;timestamp;P1;durP1;ratioP1;P2;durP2;ratioP2
49592;SDS011;35499;51.482;4.264;2023-04-03T00:01:14;7.18;;;4.22;;
49592;SDS011;35499;51.482;4.264;2023-04-03T00:03:40;3.80;;;3.08;;
49592;SDS011;35499;51.482;4.264;2023-04-03T00:06:06;7.63;;;4.80;;
49592;SDS011;35499;51.482;4.264;2023-04-03T00:08:34;4.75;;;4.00;;
49592;SDS011;35499;51.482;4.264;2023-04-03T00:11:00;5.50;;;4.28;;
49592;SDS011;35499;51.482;4.264;2023-04-03T00:13:26;7.40;;;4.35;;
49592;SDS011;35499;51.482;4.264;2023-04-03T00:15:52;7.88;;;4.47;;
49592;SDS011;35499;51.482;4.264;2023-04-03T00:18:17;10.60;;;4.53;;
49592;SDS011;35499;51.482;4.264;2023-04-03T00:20:43;7.40;;;5.40;;
49592;SDS011;35499;51.482;4.264;2023-04-03T00:23:08;8.27;;;5.22;;
49592;SDS011;35499;51.482;4.264;2023-04-03T00:25:34;7.88;;;4.43;;
49592;SDS011;35499;51.482;4.264;2023-04-03T00:27:59;5.78;;;3.30;;
49592;SDS011;35499;51.482;4.264;2023-04-03T00:30:25;7.57;;;4.35;;
49592;SDS011;35499;51.482;4.264;2023-04-03T00:32:51;8.20;;;4.75;;
49592;SDS011;35499;51.482;4.264;2023-04-03T00:35:17;5.65;;;3.40;;
49592;SDS011;35499;51.482;4.264;2023-04-03T00:40:10;5.68;;;4.43;;
49592;SDS011;35499;51.482;4.264;2023-04-03T00:42:37;5.13;;;4.07;;
49592;SDS011;35499;51.482;4.264;2023-04-03T00:47:29;7.20;;;3.78;;
49592;SDS011;35499;51.482;4.264;2023-04-03T00:49:55;7.88;;;4.00;;
49592;SDS011;35499;51.482;4.264;2023-04-03T00:52:23;5.60;;;2.60;;
49592;SDS011;35499;51.482;4.264;2023-04-03T00:54:53;4.60;;;3.40;;
49592;SDS011;35499;51.482;4.264;2023-04-03T00:57:21;4.13;;;2.05;;
49592;SDS011;35499;51.482;4.264;2023-04-03T00:59:50;6.15;;;3.28;;
49592;SDS011;35499;51.482;4.264;2023-04-03T01:02:20;5.70;;;2.55;;
49592;SDS011;35499;51.482;4.264;2023-04-03T01:04:45;6.30;;;2.78;;
49592;SDS011;35499;51.482;4.264;2023-04-03T01:07:13;4.32;;;3.10;;
49592;SDS011;35499;51.482;4.264;2023-04-03T01:09:41;5.75;;;3.00;;
49592;SDS011;35499;51.482;4.264;2023-04-03T01:12:21;5.10;;;2.60;;
49592;SDS011;35499;51.482;4.264;2023-04-03T01:14:53;5.05;;;2.95;;
49592;SDS011;35499;51.482;4.264;2023-04-03T01:17:43;4.57;;;3.33;;
49592;SDS011;35499;51.482;4.264;2023-04-03T01:28:26;6.32;;;2.67;;
49592;SDS011;35499;51.482;4.264;2023-04-03T01:31:16;4.75;;;3.17;;
49592;SDS011;35499;51.482;4.264;2023-04-03T01:33:47;3.83;;;2.47;;
49592;SDS011;35499;51.482;4.264;2023-04-03T01:36:14;6.72;;;2.75;;
49592;SDS011;35499;51.482;4.264;2023-04-03T01:38:47;6.15;;;3.00;;
49592;SDS011;35499;51.482;4.264;2023-04-03T01:41:13;4.47;;;2.75;;
49592;SDS011;35499;51.482;4.264;2023-04-03T01:43:40;7.97;;;3.20;;
49592;SDS011;35499;51.482;4.264;2023-04-03T01:46:05;5.03;;;3.70;;
49592;SDS011;35499;51.482;4.264;2023-04-03T01:48:32;4.90;;;2.77;;
49592;SDS011;35499;51.482;4.264;2023-04-03T01:50:58;4.00;;;2.78;;
49592;SDS011;35499;51.482;4.264;2023-04-03T01:53:23;3.27;;;1.70;;
49592;SDS011;35499;51.482;4.264;2023-04-03T01:55:48;9.67;;;2.87;;
49592;SDS011;35499;51.482;4.264;2023-04-03T01:58:13;5.40;;;2.43;;
49592;SDS011;35499;51.482;4.264;2023-04-03T02:00:39;4.72;;;3.45;;
49592;SDS011;35499;51.482;4.264;2023-04-03T02:03:04;7.15;;;3.72;;
49592;SDS011;35499;51.482;4.264;2023-04-03T02:05:30;5.15;;;2.72;;
49592;SDS011;35499;51.482;4.264;2023-04-03T02:07:55;4.18;;;3.22;;
49592;SDS011;35499;51.482;4.264;2023-04-03T02:10:21;6.18;;;2.80;;
49592;SDS011;35499;51.482;4.264;2023-04-03T02:12:46;3.65;;;1.83;;
49592;SDS011;35499;51.482;4.264;2023-04-03T02:15:12;3.77;;;2.63;;
49592;SDS011;35499;51.482;4.264;2023-04-03T02:17:37;5.70;;;2.60;;
49592;SDS011;35499;51.482;4.264;2023-04-03T02:20:02;5.33;;;2.70;;
49592;SDS011;35499;51.482;4.264;2023-04-03T02:22:28;4.65;;;3.15;;
49592;SDS011;35499;51.482;4.264;2023-04-03T02:24:54;3.93;;;2.93;;
49592;SDS011;35499;51.482;4.264;2023-04-03T02:27:19;4.85;;;2.30;;
49592;SDS011;35499;51.482;4.264;2023-04-03T02:29:45;5.35;;;2.25;;
49592;SDS011;35499;51.482;4.264;2023-04-03T02:32:10;4.20;;;3.03;;
49592;SDS011;35499;51.482;4.264;2023-04-03T02:34:35;3.60;;;1.93;;
49592;SDS011;35499;51.482;4.264;2023-04-03T02:37:01;4.50;;;3.27;;
49592;SDS011;35499;51.482;4.264;2023-04-03T02:39:26;6.10;;;3.28;;
49592;SDS011;35499;51.482;4.264;2023-04-03T02:41:52;5.90;;;2.90;;
49592;SDS011;35499;51.482;4.264;2023-04-03T02:44:17;4.30;;;2.70;;
49592;SDS011;35499;51.482;4.264;2023-04-03T02:46:43;4.22;;;2.33;;
49592;SDS011;35499;51.482;4.264;2023-04-03T02:49:09;6.50;;;2.85;;
49592;SDS011;35499;51.482;4.264;2023-04-03T02:51:34;5.13;;;2.70;;
49592;SDS011;35499;51.482;4.264;2023-04-03T02:53:59;7.53;;;2.72;;
49592;SDS011;35499;51.482;4.264;2023-04-03T02:56:25;5.65;;;3.28;;
49592;SDS011;35499;51.482;4.264;2023-04-03T02:58:51;7.13;;;3.05;;
49592;SDS011;35499;51.482;4.264;2023-04-03T03:01:17;7.45;;;2.97;;
49592;SDS011;35499;51.482;4.264;2023-04-03T03:03:42;4.35;;;2.97;;
49592;SDS011;35499;51.482;4.264;2023-04-03T03:06:09;4.13;;;2.23;;
49592;SDS011;35499;51.482;4.264;2023-04-03T03:08:36;5.90;;;3.17;;
49592;SDS011;35499;51.482;4.264;2023-04-03T03:11:02;5.55;;;3.22;;
49592;SDS011;35499;51.482;4.264;2023-04-03T03:13:28;6.63;;;3.40;;
49592;SDS011;35499;51.482;4.264;2023-04-03T03:15:53;6.57;;;4.18;;
49592;SDS011;35499;51.482;4.264;2023-04-03T03:18:19;6.15;;;3.28;;
49592;SDS011;35499;51.482;4.264;2023-04-03T03:20:45;6.15;;;3.42;;
49592;SDS011;35499;51.482;4.264;2023-04-03T03:23:10;5.72;;;3.45;;
49592;SDS011;35499;51.482;4.264;2023-04-03T03:25:39;3.97;;;3.20;;
49592;SDS011;35499;51.482;4.264;2023-04-03T03:28:05;8.07;;;3.72;;
49592;SDS011;35499;51.482;4.264;2023-04-03T03:30:31;6.00;;;3.13;;
49592;SDS011;35499;51.482;4.264;2023-04-03T03:32:56;7.90;;;3.22;;
49592;SDS011;35499;51.482;4.264;2023-04-03T03:35:22;4.50;;;2.83;;
49592;SDS011;35499;51.482;4.264;2023-04-03T03:37:47;6.87;;;3.13;;
49592;SDS011;35499;51.482;4.264;2023-04-03T03:40:12;6.53;;;2.20;;
49592;SDS011;35499;51.482;4.264;2023-04-03T03:42:38;4.83;;;2.97;;
49592;SDS011;35499;51.482;4.264;2023-04-03T03:45:04;4.72;;;3.13;;
49592;SDS011;35499;51.482;4.264;2023-04-03T03:47:30;4.35;;;3.53;;
49592;SDS011;35499;51.482;4.264;2023-04-03T03:49:55;7.82;;;3.22;;
49592;SDS011;35499;51.482;4.264;2023-04-03T03:52:20;4.97;;;2.50;;
49592;SDS011;35499;51.482;4.264;2023-04-03T03:54:46;4.60;;;2.90;;
49592;SDS011;35499;51.482;4.264;2023-04-03T03:57:11;4.13;;;3.77;;
49592;SDS011;35499;51.482;4.264;2023-04-03T03:59:36;5.35;;;2.83;;
49592;SDS011;35499;51.482;4.264;2023-04-03T04:02:02;3.75;;;1.25;;
49592;SDS011;35499;51.482;4.264;2023-04-03T04:04:28;6.77;;;3.37;;
49592;SDS011;35499;51.482;4.264;2023-04-03T04:06:53;6.93;;;3.67;;
49592;SDS011;35499;51.482;4.264;2023-04-03T04:09:18;3.83;;;3.37;;
49592;SDS011;35499;51.482;4.264;2023-04-03T04:11:43;4.17;;;3.27;;
49592;SDS011;35499;51.482;4.264;2023-04-03T04:14:10;5.03;;;3.67;;
49592;SDS011;35499;51.482;4.264;2023-04-03T04:16:37;6.90;;;3.25;;
49592;SDS011;35499;51.482;4.264;2023-04-03T04:19:02;6.57;;;3.73;;
49592;SDS011;35499;51.482;4.264;2023-04-03T04:21:28;5.13;;;3.30;;
49592;SDS011;35499;51.482;4.264;2023-04-03T04:23:53;5.35;;;3.55;;
49592;SDS011;35499;51.482;4.264;2023-04-03T04:26:19;6.00;;;3.13;;
49592;SDS011;35499;51.482;4.264;2023-04-03T04:28:45;6.72;;;4.28;;
49592;SDS011;35499;51.482;4.264;2023-04-03T04:31:10;5.40;;;3.00;;
49592;SDS011;35499;51.482;4.264;2023-04-03T04:33:35;4.13;;;3.43;;
49592;SDS011;35499;51.482;4.264;2023-04-03T04:36:01;7.15;;;2.88;;
49592;SDS011;35499;51.482;4.264;2023-04-03T04:38:26;6.63;;;2.27;;
49592;SDS011;35499;51.482;4.264;2023-04-03T04:40:51;10.23;;;3.77;;
49592;SDS011;35499;51.482;4.264;2023-04-03T04:43:17;8.37;;;3.40;;
49592;SDS011;35499;51.482;4.264;2023-04-03T04:45:42;5.07;;;2.20;;
49592;SDS011;35499;51.482;4.264;2023-04-03T04:48:07;5.83;;;3.50;;
49592;SDS011;35499;51.482;4.264;2023-04-03T04:50:33;4.77;;;3.03;;
49592;SDS011;35499;51.482;4.264;2023-04-03T04:52:58;5.35;;;3.72;;
49592;SDS011;35499;51.482;4.264;2023-04-03T04:55:23;4.97;;;3.78;;
49592;SDS011;35499;51.482;4.264;2023-04-03T04:57:49;7.10;;;3.13;;
49592;SDS011;35499;51.482;4.264;2023-04-03T05:00:14;7.68;;;3.25;;
49592;SDS011;35499;51.482;4.264;2023-04-03T05:02:40;6.30;;;4.03;;
49592;SDS011;35499;51.482;4.264;2023-04-03T05:05:06;5.10;;;3.47;;
49592;SDS011;35499;51.482;4.264;2023-04-03T05:07:31;3.22;;;2.35;;
49592;SDS011;35499;51.482;4.264;2023-04-03T05:09:57;6.30;;;3.73;;
49592;SDS011;35499;51.482;4.264;2023-04-03T05:12:22;4.80;;;3.17;;
49592;SDS011;35499;51.482;4.264;2023-04-03T05:14:47;6.18;;;3.58;;
49592;SDS011;35499;51.482;4.264;2023-04-03T05:17:13;5.57;;;3.90;;
49592;SDS011;35499;51.482;4.264;2023-04-03T05:19:38;10.30;;;4.07;;
49592;SDS011;35499;51.482;4.264;2023-04-03T05:22:03;4.10;;;3.20;;
49592;SDS011;35499;51.482;4.264;2023-04-03T05:24:28;5.10;;;3.23;;
49592;SDS011;35499;51.482;4.264;2023-04-03T05:26:54;5.23;;;2.43;;
49592;SDS011;35499;51.482;4.264;2023-04-03T05:29:19;3.80;;;3.33;;
49592;SDS011;35499;51.482;4.264;2023-04-03T05:31:45;8.98;;;2.97;;
49592;SDS011;35499;51.482;4.264;2023-04-03T05:34:11;4.93;;;3.53;;
49592;SDS011;35499;51.482;4.264;2023-04-03T05:36:36;8.60;;;3.60;;
49592;SDS011;35499;51.482;4.264;2023-04-03T05:39:02;5.22;;;2.65;;
49592;SDS011;35499;51.482;4.264;2023-04-03T05:41:27;5.97;;;3.40;;
49592;SDS011;35499;51.482;4.264;2023-04-03T05:43:53;6.63;;;2.60;;
49592;SDS011;35499;51.482;4.264;2023-04-03T05:46:18;5.40;;;2.77;;
49592;SDS011;35499;51.482;4.264;2023-04-03T05:48:45;4.30;;;3.17;;
49592;SDS011;35499;51.482;4.264;2023-04-03T05:51:14;4.78;;;3.10;;
49592;SDS011;35499;51.482;4.264;2023-04-03T05:53:41;4.97;;;2.83;;
49592;SDS011;35499;51.482;4.264;2023-04-03T05:56:08;4.95;;;3.40;;
49592;SDS011;35499;51.482;4.264;2023-04-03T05:58:33;5.27;;;3.10;;
49592;SDS011;35499;51.482;4.264;2023-04-03T06:00:59;8.35;;;3.65;;
49592;SDS011;35499;51.482;4.264;2023-04-03T06:03:24;3.90;;;2.53;;
49592;SDS011;35499;51.482;4.264;2023-04-03T06:05:50;4.88;;;2.97;;
49592;SDS011;35499;51.482;4.264;2023-04-03T06:08:15;6.10;;;2.92;;
49592;SDS011;35499;51.482;4.264;2023-04-03T06:10:41;4.93;;;2.83;;
49592;SDS011;35499;51.482;4.264;2023-04-03T06:13:06;4.67;;;3.10;;
49592;SDS011;35499;51.482;4.264;2023-04-03T06:15:32;4.45;;;2.38;;
49592;SDS011;35499;51.482;4.264;2023-04-03T06:17:58;5.60;;;3.25;;
49592;SDS011;35499;51.482;4.264;2023-04-03T06:20:24;6.03;;;2.60;;
49592;SDS011;35499;51.482;4.264;2023-04-03T06:22:49;3.70;;;2.70;;
49592;SDS011;35499;51.482;4.264;2023-04-03T06:25:15;4.68;;;2.65;;
49592;SDS011;35499;51.482;4.264;2023-04-03T06:27:42;4.43;;;2.63;;
49592;SDS011;35499;51.482;4.264;2023-04-03T06:30:07;4.07;;;2.40;;
49592;SDS011;35499;51.482;4.264;2023-04-03T06:32:33;6.57;;;2.60;;
49592;SDS011;35499;51.482;4.264;2023-04-03T06:34:58;4.53;;;2.50;;
49592;SDS011;35499;51.482;4.264;2023-04-03T06:37:25;3.92;;;1.90;;
49592;SDS011;35499;51.482;4.264;2023-04-03T06:39:54;3.35;;;2.13;;
49592;SDS011;35499;51.482;4.264;2023-04-03T06:42:20;4.15;;;2.55;;
49592;SDS011;35499;51.482;4.264;2023-04-03T06:44:46;5.07;;;1.65;;
49592;SDS011;35499;51.482;4.264;2023-04-03T06:47:12;4.28;;;1.77;;
49592;SDS011;35499;51.482;4.264;2023-04-03T06:49:38;5.45;;;2.05;;
49592;SDS011;35499;51.482;4.264;2023-04-03T06:52:04;4.22;;;2.08;;
49592;SDS011;35499;51.482;4.264;2023-04-03T06:54:30;3.40;;;1.45;;
49592;SDS011;35499;51.482;4.264;2023-04-03T06:56:56;3.45;;;1.55;;
49592;SDS011;35499;51.482;4.264;2023-04-03T06:59:21;3.55;;;1.50;;
49592;SDS011;35499;51.482;4.264;2023-04-03T07:01:46;4.07;;;1.40;;
49592;SDS011;35499;51.482;4.264;2023-04-03T07:04:12;5.00;;;1.25;;
49592;SDS011;35499;51.482;4.264;2023-04-03T07:06:37;4.13;;;1.42;;
49592;SDS011;35499;51.482;4.264;2023-04-03T07:09:03;3.90;;;1.40;;
49592;SDS011;35499;51.482;4.264;2023-04-03T07:11:28;4.18;;;1.48;;
49592;SDS011;35499;51.482;4.264;2023-04-03T07:13:53;4.27;;;1.10;;
49592;SDS011;35499;51.482;4.264;2023-04-03T07:16:19;5.83;;;1.63;;
49592;SDS011;35499;51.482;4.264;2023-04-03T07:18:45;4.45;;;1.42;;
49592;SDS011;35499;51.482;4.264;2023-04-03T07:21:10;4.20;;;1.40;;
49592;SDS011;35499;51.482;4.264;2023-04-03T07:23:36;2.80;;;1.15;;
49592;SDS011;35499;51.482;4.264;2023-04-03T07:26:02;5.85;;;1.52;;
49592;SDS011;35499;51.482;4.264;2023-04-03T07:28:28;3.72;;;1.48;;
49592;SDS011;35499;51.482;4.264;2023-04-03T07:30:59;3.20;;;1.10;;
49592;SDS011;35499;51.482;4.264;2023-04-03T07:33:26;3.95;;;0.90;;
49592;SDS011;35499;51.482;4.264;2023-04-03T07:35:51;3.47;;;1.02;;
49592;SDS011;35499;51.482;4.264;2023-04-03T07:38:17;5.40;;;1.60;;
49592;SDS011;35499;51.482;4.264;2023-04-03T07:40:49;4.05;;;1.00;;
49592;SDS011;35499;51.482;4.264;2023-04-03T07:43:16;4.43;;;1.30;;
49592;SDS011;35499;51.482;4.264;2023-04-03T07:45:42;4.22;;;1.55;;
49592;SDS011;35499;51.482;4.264;2023-04-03T07:48:09;2.92;;;1.05;;
49592;SDS011;35499;51.482;4.264;2023-04-03T07:53:01;4.18;;;1.20;;
49592;SDS011;35499;51.482;4.264;2023-04-03T07:55:27;3.92;;;1.15;;
49592;SDS011;35499;51.482;4.264;2023-04-03T07:57:52;7.03;;;1.13;;
49592;SDS011;35499;51.482;4.264;2023-04-03T08:00:17;4.20;;;1.10;;
49592;SDS011;35499;51.482;4.264;2023-04-03T08:02:44;6.15;;;1.73;;
49592;SDS011;35499;51.482;4.264;2023-04-03T08:05:15;5.22;;;1.55;;
49592;SDS011;35499;51.482;4.264;2023-04-03T08:07:40;4.25;;;1.15;;
49592;SDS011;35499;51.482;4.264;2023-04-03T08:10:06;3.10;;;1.30;;
49592;SDS011;35499;51.482;4.264;2023-04-03T08:12:31;4.07;;;1.20;;
49592;SDS011;35499;51.482;4.264;2023-04-03T08:14:57;4.57;;;1.08;;
49592;SDS011;35499;51.482;4.264;2023-04-03T08:17:24;5.75;;;1.20;;
49592;SDS011;35499;51.482;4.264;2023-04-03T08:19:49;2.88;;;1.10;;
49592;SDS011;35499;51.482;4.264;2023-04-03T08:22:15;3.60;;;1.20;;
49592;SDS011;35499;51.482;4.264;2023-04-03T08:24:41;2.95;;;0.88;;
49592;SDS011;35499;51.482;4.264;2023-04-03T08:27:06;4.70;;;0.98;;
49592;SDS011;35499;51.482;4.264;2023-04-03T08:29:31;3.72;;;0.80;;
49592;SDS011;35499;51.482;4.264;2023-04-03T08:31:57;4.10;;;1.17;;
49592;SDS011;35499;51.482;4.264;2023-04-03T08:34:22;2.93;;;0.60;;
49592;SDS011;35499;51.482;4.264;2023-04-03T08:36:47;2.78;;;0.93;;
49592;SDS011;35499;51.482;4.264;2023-04-03T08:39:13;3.40;;;1.05;;
49592;SDS011;35499;51.482;4.264;2023-04-03T08:41:39;5.43;;;1.37;;
49592;SDS011;35499;51.482;4.264;2023-04-03T08:49:39;1.88;;;0.60;;
49592;SDS011;35499;51.482;4.264;2023-04-03T08:52:37;4.68;;;1.20;;
49592;SDS011;35499;51.482;4.264;2023-04-03T08:55:04;3.05;;;0.80;;
49592;SDS011;35499;51.482;4.264;2023-04-03T08:57:41;3.22;;;1.08;;
49592;SDS011;35499;51.482;4.264;2023-04-03T09:04:40;3.92;;;0.90;;
49592;SDS011;35499;51.482;4.264;2023-04-03T09:07:10;3.73;;;1.07;;
49592;SDS011;35499;51.482;4.264;2023-04-03T09:09:42;4.00;;;0.80;;
49592;SDS011;35499;51.482;4.264;2023-04-03T09:12:19;3.17;;;0.73;;
49592;SDS011;35499;51.482;4.264;2023-04-03T09:15:24;4.65;;;0.90;;
49592;SDS011;35499;51.482;4.264;2023-04-03T09:26:11;2.85;;;0.60;;
49592;SDS011;35499;51.482;4.264;2023-04-03T09:28:41;4.47;;;1.15;;
49592;SDS011;35499;51.482;4.264;2023-04-03T09:37:01;3.45;;;1.00;;
49592;SDS011;35499;51.482;4.264;2023-04-03T09:39:32;4.00;;;0.90;;
49592;SDS011;35499;51.482;4.264;2023-04-03T09:42:16;2.38;;;0.80;;
49592;SDS011;35499;51.482;4.264;2023-04-03T09:44:52;3.50;;;1.00;;
49592;SDS011;35499;51.482;4.264;2023-04-03T09:47:54;2.78;;;0.85;;
49592;SDS011;35499;51.482;4.264;2023-04-03T09:52:38;3.10;;;1.33;;
49592;SDS011;35499;51.482;4.264;2023-04-03T09:55:20;3.33;;;0.93;;
49592;SDS011;35499;51.482;4.264;2023-04-03T09:58:00;3.30;;;0.70;;
49592;SDS011;35499;51.482;4.264;2023-04-03T10:00:28;2.53;;;0.65;;
49592;SDS011;35499;51.482;4.264;2023-04-03T10:02:58;3.55;;;1.02;;
49592;SDS011;35499;51.482;4.264;2023-04-03T10:05:45;3.40;;;1.10;;
49592;SDS011;35499;51.482;4.264;2023-04-03T10:10:39;3.20;;;0.70;;
49592;SDS011;35499;51.482;4.264;2023-04-03T10:13:16;1.75;;;0.60;;
49592;SDS011;35499;51.482;4.264;2023-04-03T10:15:55;3.55;;;0.77;;
49592;SDS011;35499;51.482;4.264;2023-04-03T10:18:31;1.92;;;0.70;;
49592;SDS011;35499;51.482;4.264;2023-04-03T10:21:06;3.65;;;0.75;;
49592;SDS011;35499;51.482;4.264;2023-04-03T10:23:44;1.52;;;0.50;;
49592;SDS011;35499;51.482;4.264;2023-04-03T10:29:02;3.55;;;0.70;;
49592;SDS011;35499;51.482;4.264;2023-04-03T10:34:25;3.33;;;0.68;;
49592;SDS011;35499;51.482;4.264;2023-04-03T10:39:36;2.47;;;0.55;;
49592;SDS011;35499;51.482;4.264;2023-04-03T10:42:03;2.03;;;0.77;;
49592;SDS011;35499;51.482;4.264;2023-04-03T10:50:26;2.05;;;1.02;;
49592;SDS011;35499;51.482;4.264;2023-04-03T10:53:39;2.33;;;0.47;;
49592;SDS011;35499;51.482;4.264;2023-04-03T10:58:54;2.15;;;0.60;;
49592;SDS011;35499;51.482;4.264;2023-04-03T11:01:29;1.98;;;0.40;;
49592;SDS011;35499;51.482;4.264;2023-04-03T11:03:58;2.00;;;0.50;;
49592;SDS011;35499;51.482;4.264;2023-04-03T11:06:30;2.58;;;0.65;;
49592;SDS011;35499;51.482;4.264;2023-04-03T11:09:11;3.35;;;0.52;;
49592;SDS011;35499;51.482;4.264;2023-04-03T11:11:49;2.13;;;0.82;;
49592;SDS011;35499;51.482;4.264;2023-04-03T11:14:38;4.15;;;0.70;;
49592;SDS011;35499;51.482;4.264;2023-04-03T11:20:25;2.38;;;1.13;;
49592;SDS011;35499;51.482;4.264;2023-04-03T11:23:36;1.48;;;0.38;;
49592;SDS011;35499;51.482;4.264;2023-04-03T11:25:44;3.08;;;0.52;;
49592;SDS011;35499;51.482;4.264;2023-04-03T11:28:14;2.17;;;0.60;;
49592;SDS011;35499;51.482;4.264;2023-04-03T11:36:19;2.53;;;0.70;;
49592;SDS011;35499;51.482;4.264;2023-04-03T11:38:57;1.83;;;0.85;;
49592;SDS011;35499;51.482;4.264;2023-04-03T11:41:30;2.88;;;0.60;;
49592;SDS011;35499;51.482;4.264;2023-04-03T11:44:24;2.50;;;0.80;;
49592;SDS011;35499;51.482;4.264;2023-04-03T11:47:00;1.50;;;0.40;;
49592;SDS011;35499;51.482;4.264;2023-04-03T12:05:53;1.15;;;0.40;;
49592;SDS011;35499;51.482;4.264;2023-04-03T12:08:27;1.73;;;0.40;;
49592;SDS011;35499;51.482;4.264;2023-04-03T12:40:06;2.08;;;0.57;;
49592;SDS011;35499;51.482;4.264;2023-04-03T12:47:53;1.38;;;0.32;;
49592;SDS011;35499;51.482;4.264;2023-04-03T12:50:32;1.25;;;0.50;;
49592;SDS011;35499;51.482;4.264;2023-04-03T12:55:44;1.10;;;0.40;;
49592;SDS011;35499;51.482;4.264;2023-04-03T12:58:16;1.20;;;0.30;;
49592;SDS011;35499;51.482;4.264;2023-04-03T13:00:46;0.88;;;0.28;;
49592;SDS011;35499;51.482;4.264;2023-04-03T13:03:24;1.60;;;0.60;;
49592;SDS011;35499;51.482;4.264;2023-04-03T13:05:52;1.35;;;0.45;;
49592;SDS011;35499;51.482;4.264;2023-04-03T13:08:28;1.20;;;0.30;;
49592;SDS011;35499;51.482;4.264;2023-04-03T13:11:00;1.83;;;0.30;;
49592;SDS011;35499;51.482;4.264;2023-04-03T13:13:28;1.30;;;0.20;;
49592;SDS011;35499;51.482;4.264;2023-04-03T13:15:54;1.30;;;0.82;;
49592;SDS011;35499;51.482;4.264;2023-04-03T13:21:03;1.15;;;0.40;;
49592;SDS011;35499;51.482;4.264;2023-04-03T13:23:31;1.95;;;0.50;;
49592;SDS011;35499;51.482;4.264;2023-04-03T13:25:59;1.08;;;0.32;;
49592;SDS011;35499;51.482;4.264;2023-04-03T13:28:28;1.48;;;0.32;;
49592;SDS011;35499;51.482;4.264;2023-04-03T13:33:32;1.20;;;0.32;;
49592;SDS011;35499;51.482;4.264;2023-04-03T13:36:16;1.40;;;0.65;;
49592;SDS011;35499;51.482;4.264;2023-04-03T13:38:44;1.00;;;0.40;;
49592;SDS011;35499;51.482;4.264;2023-04-03T13:41:26;1.77;;;0.40;;
49592;SDS011;35499;51.482;4.264;2023-04-03T13:43:55;1.60;;;0.52;;
49592;SDS011;35499;51.482;4.264;2023-04-03T13:46:23;1.20;;;0.30;;
49592;SDS011;35499;51.482;4.264;2023-04-03T13:48:53;1.83;;;0.40;;
49592;SDS011;35499;51.482;4.264;2023-04-03T13:51:24;2.90;;;0.60;;
49592;SDS011;35499;51.482;4.264;2023-04-03T13:56:53;4.30;;;0.55;;
49592;SDS011;35499;51.482;4.264;2023-04-03T14:04:15;3.53;;;0.60;;
49592;SDS011;35499;51.482;4.264;2023-04-03T14:06:43;1.08;;;0.40;;
49592;SDS011;35499;51.482;4.264;2023-04-03T14:09:10;0.90;;;0.25;;
49592;SDS011;35499;51.482;4.264;2023-04-03T14:11:35;0.90;;;0.25;;
49592;SDS011;35499;51.482;4.264;2023-04-03T14:14:02;1.48;;;0.52;;
49592;SDS011;35499;51.482;4.264;2023-04-03T14:16:37;1.90;;;0.52;;
49592;SDS011;35499;51.482;4.264;2023-04-03T14:19:04;0.90;;;0.40;;
49592;SDS011;35499;51.482;4.264;2023-04-03T14:21:29;0.90;;;0.30;;
49592;SDS011;35499;51.482;4.264;2023-04-03T14:23:54;2.83;;;0.93;;
49592;SDS011;35499;51.482;4.264;2023-04-03T14:26:21;1.00;;;0.30;;
49592;SDS011;35499;51.482;4.264;2023-04-03T14:28:49;1.63;;;0.30;;
49592;SDS011;35499;51.482;4.264;2023-04-03T14:31:17;1.40;;;0.40;;
49592;SDS011;35499;51.482;4.264;2023-04-03T14:33:43;0.93;;;0.40;;
49592;SDS011;35499;51.482;4.264;2023-04-03T14:36:13;1.67;;;0.40;;
49592;SDS011;35499;51.482;4.264;2023-04-03T14:38:40;3.20;;;0.30;;
49592;SDS011;35499;51.482;4.264;2023-04-03T14:41:06;2.40;;;0.50;;
49592;SDS011;35499;51.482;4.264;2023-04-03T14:43:32;2.55;;;0.50;;
49592;SDS011;35499;51.482;4.264;2023-04-03T14:45:57;1.08;;;0.30;;
49592;SDS011;35499;51.482;4.264;2023-04-03T14:48:24;1.20;;;0.22;;
49592;SDS011;35499;51.482;4.264;2023-04-03T14:50:52;3.20;;;0.50;;
49592;SDS011;35499;51.482;4.264;2023-04-03T14:53:18;2.15;;;0.50;;
49592;SDS011;35499;51.482;4.264;2023-04-03T14:55:47;1.45;;;0.50;;
49592;SDS011;35499;51.482;4.264;2023-04-03T15:00:40;1.48;;;0.40;;
49592;SDS011;35499;51.482;4.264;2023-04-03T15:03:06;2.13;;;0.43;;
49592;SDS011;35499;51.482;4.264;2023-04-03T15:05:31;0.73;;;0.30;;
49592;SDS011;35499;51.482;4.264;2023-04-03T15:07:57;1.90;;;0.40;;
49592;SDS011;35499;51.482;4.264;2023-04-03T15:10:28;2.10;;;0.60;;
49592;SDS011;35499;51.482;4.264;2023-04-03T15:12:55;3.00;;;0.50;;
49592;SDS011;35499;51.482;4.264;2023-04-03T15:15:21;3.75;;;0.68;;
49592;SDS011;35499;51.482;4.264;2023-04-03T15:17:48;2.00;;;0.50;;
49592;SDS011;35499;51.482;4.264;2023-04-03T15:20:20;1.95;;;0.40;;
49592;SDS011;35499;51.482;4.264;2023-04-03T15:22:48;2.53;;;0.60;;
49592;SDS011;35499;51.482;4.264;2023-04-03T15:25:13;2.55;;;0.55;;
49592;SDS011;35499;51.482;4.264;2023-04-03T15:27:39;3.42;;;0.98;;
49592;SDS011;35499;51.482;4.264;2023-04-03T15:30:07;1.17;;;0.30;;
49592;SDS011;35499;51.482;4.264;2023-04-03T15:32:36;3.05;;;0.65;;
49592;SDS011;35499;51.482;4.264;2023-04-03T15:35:01;1.67;;;0.50;;
49592;SDS011;35499;51.482;4.264;2023-04-03T15:37:27;2.03;;;0.50;;
49592;SDS011;35499;51.482;4.264;2023-04-03T15:39:52;3.63;;;0.95;;
49592;SDS011;35499;51.482;4.264;2023-04-03T15:42:17;2.97;;;0.80;;
49592;SDS011;35499;51.482;4.264;2023-04-03T15:44:43;3.65;;;0.98;;
49592;SDS011;35499;51.482;4.264;2023-04-03T15:47:08;6.23;;;0.80;;
49592;SDS011;35499;51.482;4.264;2023-04-03T15:49:34;4.70;;;0.60;;
49592;SDS011;35499;51.482;4.264;2023-04-03T15:52:00;1.70;;;0.40;;
49592;SDS011;35499;51.482;4.264;2023-04-03T15:54:25;1.77;;;0.60;;
49592;SDS011;35499;51.482;4.264;2023-04-03T15:56:51;2.55;;;0.80;;
49592;SDS011;35499;51.482;4.264;2023-04-03T15:59:17;4.53;;;1.00;;
49592;SDS011;35499;51.482;4.264;2023-04-03T16:01:43;1.38;;;0.52;;
49592;SDS011;35499;51.482;4.264;2023-04-03T16:04:09;3.17;;;0.50;;
49592;SDS011;35499;51.482;4.264;2023-04-03T16:06:35;3.33;;;0.77;;
49592;SDS011;35499;51.482;4.264;2023-04-03T16:09:02;1.38;;;0.50;;
49592;SDS011;35499;51.482;4.264;2023-04-03T16:11:28;1.55;;;0.50;;
49592;SDS011;35499;51.482;4.264;2023-04-03T16:13:54;2.05;;;0.77;;
49592;SDS011;35499;51.482;4.264;2023-04-03T16:16:20;2.17;;;0.73;;
49592;SDS011;35499;51.482;4.264;2023-04-03T16:18:45;2.20;;;1.05;;
49592;SDS011;35499;51.482;4.264;2023-04-03T16:21:12;3.65;;;0.60;;
49592;SDS011;35499;51.482;4.264;2023-04-03T16:26:04;2.45;;;0.60;;
49592;SDS011;35499;51.482;4.264;2023-04-03T16:28:29;3.50;;;0.90;;
49592;SDS011;35499;51.482;4.264;2023-04-03T16:30:55;2.93;;;0.77;;
49592;SDS011;35499;51.482;4.264;2023-04-03T16:33:20;3.28;;;0.82;;
49592;SDS011;35499;51.482;4.264;2023-04-03T16:35:47;4.95;;;0.73;;
49592;SDS011;35499;51.482;4.264;2023-04-03T16:38:13;1.30;;;0.40;;
49592;SDS011;35499;51.482;4.264;2023-04-03T16:40:39;2.60;;;0.80;;
49592;SDS011;35499;51.482;4.264;2023-04-03T16:43:05;2.33;;;0.90;;
49592;SDS011;35499;51.482;4.264;2023-04-03T16:45:30;1.90;;;0.60;;
49592;SDS011;35499;51.482;4.264;2023-04-03T16:47:55;2.70;;;0.63;;
49592;SDS011;35499;51.482;4.264;2023-04-03T16:50:21;5.63;;;1.00;;
49592;SDS011;35499;51.482;4.264;2023-04-03T16:52:46;1.97;;;0.63;;
49592;SDS011;35499;51.482;4.264;2023-04-03T16:55:11;3.33;;;0.50;;
49592;SDS011;35499;51.482;4.264;2023-04-03T16:57:37;2.30;;;0.75;;
49592;SDS011;35499;51.482;4.264;2023-04-03T17:00:03;3.13;;;0.68;;
49592;SDS011;35499;51.482;4.264;2023-04-03T17:02:28;2.85;;;0.50;;
49592;SDS011;35499;51.482;4.264;2023-04-03T17:04:54;3.33;;;0.75;;
49592;SDS011;35499;51.482;4.264;2023-04-03T17:07:20;2.40;;;0.63;;
49592;SDS011;35499;51.482;4.264;2023-04-03T17:09:47;2.25;;;0.88;;
49592;SDS011;35499;51.482;4.264;2023-04-03T17:12:12;2.42;;;0.95;;
49592;SDS011;35499;51.482;4.264;2023-04-03T17:14:41;1.88;;;0.80;;